createdAt,value
2022-08-22T00:00:07.558Z,98254.00
2022-08-22T00:00:19.507Z,98254.00
2022-08-22T00:00:27.537Z,98252.00
2022-08-22T00:00:42.882Z,98254.00
2022-08-22T00:00:50.417Z,98258.00
2022-08-22T00:01:00.415Z,98254.00
2022-08-22T00:01:08.438Z,98252.00
2022-08-22T00:01:19.477Z,98250.00
2022-08-22T00:01:29.367Z,98254.00
2022-08-22T00:01:40.506Z,98252.00
2022-08-22T00:01:48.548Z,98256.00
2022-08-22T00:02:00.621Z,98254.00
2022-08-22T00:02:10.565Z,98252.00
2022-08-22T00:02:18.581Z,98254.00
2022-08-22T00:02:28.604Z,98254.00
2022-08-22T00:02:40.541Z,98254.00
2022-08-22T00:02:42.671Z,98187.00
2022-08-22T00:02:43.110Z,98199.00
2022-08-22T00:02:43.366Z,98223.00
2022-08-22T00:02:43.552Z,98215.00
2022-08-22T00:02:44.825Z,98152.00
2022-08-22T00:02:46.313Z,98205.00
2022-08-22T00:02:46.314Z,98203.00
2022-08-22T00:02:46.943Z,98231.00
2022-08-22T00:02:47.466Z,98148.00
2022-08-22T00:02:47.781Z,98166.00
2022-08-22T00:02:52.693Z,98166.00
2022-08-22T00:02:53.052Z,98177.00
2022-08-22T00:02:54.176Z,98215.00
2022-08-22T00:02:54.938Z,98245.00
2022-08-22T00:02:55.068Z,98248.00
2022-08-22T00:02:55.263Z,98250.00
2022-08-22T00:02:55.327Z,98254.00
2022-08-22T00:02:55.612Z,98250.00
2022-08-22T00:02:55.896Z,98252.00
2022-08-22T00:02:55.898Z,98193.00
2022-08-22T00:02:56.260Z,98172.00
2022-08-22T00:02:56.261Z,98207.00
2022-08-22T00:02:56.787Z,98185.00
2022-08-22T00:02:57.280Z,98213.00
2022-08-22T00:02:57.486Z,98248.00
2022-08-22T00:02:58.379Z,98201.00
2022-08-22T00:03:02.620Z,98164.00
2022-08-22T00:03:02.740Z,98225.00
2022-08-22T00:03:04.492Z,98207.00
2022-08-22T00:03:06.628Z,98254.00
2022-08-22T00:03:06.692Z,98256.00
2022-08-22T00:03:08.633Z,98254.00
2022-08-22T00:03:08.939Z,98237.00
2022-08-22T00:03:09.332Z,98173.00
2022-08-22T00:03:09.681Z,98241.00
2022-08-22T00:03:10.197Z,98252.00
2022-08-22T00:03:16.023Z,98254.00
2022-08-22T00:03:17.408Z,98254.00
2022-08-22T00:03:17.454Z,98256.00
2022-08-22T00:03:30.898Z,98256.00
2022-08-22T00:03:40.917Z,98254.00
2022-08-22T00:03:50.952Z,98256.00
2022-08-22T00:03:59.487Z,98252.00
2022-08-22T00:04:08.929Z,98256.00
2022-08-22T00:04:18.988Z,98254.00
2022-08-22T00:04:33.467Z,98254.00
2022-08-22T00:04:40.000Z,98256.00
2022-08-22T00:04:50.548Z,98254.00
2022-08-22T00:05:01.798Z,98254.00
2022-08-22T00:05:09.946Z,98256.00
2022-08-22T00:05:21.760Z,98252.00
2022-08-22T00:05:31.759Z,98254.00
2022-08-22T00:05:41.798Z,98252.00
2022-08-22T00:05:51.290Z,98254.00
2022-08-22T00:06:00.817Z,98254.00
2022-08-22T00:06:11.786Z,98254.00
2022-08-22T00:06:21.789Z,98250.00
2022-08-22T00:06:29.819Z,98254.00
2022-08-22T00:06:41.808Z,98250.00
2022-08-22T00:06:49.830Z,98252.00
2022-08-22T00:06:59.836Z,98252.00
2022-08-22T00:07:11.769Z,98252.00
2022-08-22T00:07:19.818Z,98252.00
2022-08-22T00:07:29.878Z,98252.00
2022-08-22T00:07:43.025Z,98256.00
2022-08-22T00:07:49.810Z,98252.00
2022-08-22T00:08:01.760Z,98250.00
2022-08-22T00:08:09.898Z,98250.00
2022-08-22T00:08:21.742Z,98252.00
2022-08-22T00:08:31.778Z,98254.00
2022-08-22T00:08:39.806Z,98252.00
2022-08-22T00:08:49.820Z,98250.00
2022-08-22T00:09:01.749Z,98250.00
2022-08-22T00:09:11.760Z,98252.00
2022-08-22T00:09:20.764Z,98254.00
2022-08-22T00:09:31.762Z,98254.00
2022-08-22T00:09:41.730Z,98252.00
2022-08-22T00:09:49.808Z,98252.00
2022-08-22T00:09:59.800Z,98252.00
2022-08-22T00:10:09.810Z,98252.00
2022-08-22T00:10:25.196Z,98248.00
2022-08-22T00:10:32.480Z,98252.00
2022-08-22T00:10:42.491Z,98250.00
2022-08-22T00:10:50.690Z,98250.00
2022-08-22T00:11:00.502Z,98252.00
2022-08-22T00:11:10.520Z,98254.00
2022-08-22T00:11:20.834Z,98248.00
2022-08-22T00:11:30.490Z,98250.00
2022-08-22T00:11:40.529Z,98252.00
2022-08-22T00:11:50.533Z,98252.00
2022-08-22T00:12:00.482Z,98252.00
2022-08-22T00:12:12.473Z,98250.00
2022-08-22T00:12:22.451Z,98256.00
2022-08-22T00:12:30.501Z,98256.00
2022-08-22T00:12:40.520Z,98252.00
2022-08-22T00:12:50.568Z,98252.00
2022-08-22T00:13:02.430Z,98254.00
2022-08-22T00:13:12.437Z,98252.00
2022-08-22T00:13:22.441Z,98254.00
2022-08-22T00:13:32.443Z,98250.00
2022-08-22T00:13:40.610Z,98252.00
2022-08-22T00:13:52.671Z,98252.00
2022-08-22T00:14:02.053Z,98254.00
2022-08-22T00:14:10.580Z,98256.00
2022-08-22T00:14:20.481Z,98258.00
2022-08-22T00:14:30.488Z,98256.00
2022-08-22T00:14:42.421Z,98254.00
2022-08-22T00:14:52.441Z,98252.00
2022-08-22T00:15:00.492Z,98252.00
2022-08-22T00:15:31.555Z,98252.00
2022-08-22T00:15:42.333Z,98254.00
2022-08-22T00:15:42.943Z,98252.00
2022-08-22T00:15:44.422Z,98254.00
2022-08-22T00:15:54.106Z,98254.00
2022-08-22T00:16:04.100Z,98254.00
2022-08-22T00:16:16.078Z,98252.00
2022-08-22T00:16:26.057Z,98254.00
2022-08-22T00:16:34.141Z,98254.00
2022-08-22T00:16:46.056Z,98254.00
2022-08-22T00:16:56.053Z,98252.00
2022-08-22T00:17:06.046Z,98254.00
2022-08-22T00:17:16.042Z,98254.00
2022-08-22T00:17:26.041Z,98252.00
2022-08-22T00:17:36.052Z,98254.00
2022-08-22T00:17:44.092Z,98252.00
2022-08-22T00:17:54.120Z,98256.00
2022-08-22T00:18:06.072Z,98256.00
2022-08-22T00:18:15.033Z,98254.00
2022-08-22T00:18:26.031Z,98254.00
2022-08-22T00:18:34.111Z,98252.00
2022-08-22T00:18:46.051Z,98254.00
2022-08-22T00:18:56.032Z,98254.00
2022-08-22T00:19:04.892Z,98254.00
2022-08-22T00:19:16.073Z,98256.00
2022-08-22T00:19:24.929Z,98256.00
2022-08-22T00:19:36.052Z,98252.00
2022-08-22T00:19:46.040Z,98254.00
2022-08-22T00:19:56.050Z,98254.00
2022-08-22T00:20:06.033Z,98254.00
2022-08-22T00:20:14.582Z,98254.00
2022-08-22T00:20:26.090Z,98258.00
2022-08-22T00:20:36.042Z,98254.00
2022-08-22T00:20:46.043Z,98254.00
2022-08-22T00:20:56.023Z,98258.00
2022-08-22T00:21:06.022Z,98258.00
2022-08-22T00:21:14.067Z,98256.00
2022-08-22T00:21:26.048Z,98256.00
2022-08-22T00:21:36.014Z,98256.00
2022-08-22T00:21:45.523Z,98256.00
2022-08-22T00:21:56.243Z,98258.00
2022-08-22T00:22:04.063Z,98254.00
2022-08-22T00:22:15.552Z,98258.00
2022-08-22T00:22:26.005Z,98256.00
2022-08-22T00:22:36.014Z,98256.00
2022-08-22T00:22:44.853Z,98254.00
2022-08-22T00:22:56.043Z,98256.00
2022-08-22T00:23:04.053Z,98256.00
2022-08-22T00:23:14.073Z,98256.00
2022-08-22T00:23:26.046Z,98254.00
2022-08-22T00:23:34.052Z,98254.00
2022-08-22T00:23:46.023Z,98256.00
2022-08-22T00:23:56.004Z,98252.00
2022-08-22T00:24:05.993Z,98256.00
2022-08-22T00:24:15.985Z,98256.00
2022-08-22T00:24:26.025Z,98254.00
2022-08-22T00:24:35.995Z,98254.00
2022-08-22T00:24:44.046Z,98256.00
2022-08-22T00:24:56.045Z,98254.00
2022-08-22T00:25:05.506Z,98254.00
2022-08-22T00:25:25.841Z,98256.00
2022-08-22T00:25:26.413Z,98254.00
2022-08-22T00:25:35.579Z,98254.00
2022-08-22T00:25:46.324Z,98254.00
2022-08-22T00:25:55.584Z,98252.00
2022-08-22T00:26:05.615Z,98252.00
2022-08-22T00:26:16.355Z,98258.00
2022-08-22T00:26:25.580Z,98258.00
2022-08-22T00:26:35.614Z,98254.00
2022-08-22T00:26:47.548Z,98258.00
2022-08-22T00:26:57.046Z,98256.00
2022-08-22T00:27:05.609Z,98256.00
2022-08-22T00:27:17.558Z,98254.00
2022-08-22T00:27:25.576Z,98258.00
2022-08-22T00:27:35.809Z,98258.00
2022-08-22T00:27:45.694Z,98256.00
2022-08-22T00:27:55.646Z,98256.00
2022-08-22T00:28:06.392Z,98254.00
2022-08-22T00:28:16.665Z,98256.00
2022-08-22T00:28:25.754Z,98256.00
2022-08-22T00:28:37.557Z,98254.00
2022-08-22T00:28:47.533Z,98258.00
2022-08-22T00:28:57.035Z,98256.00
2022-08-22T00:29:07.537Z,98252.00
2022-08-22T00:29:17.543Z,98254.00
2022-08-22T00:29:25.657Z,98252.00
2022-08-22T00:29:35.596Z,98254.00
2022-08-22T00:29:45.565Z,98252.00
2022-08-22T00:29:56.466Z,98252.00
2022-08-22T00:30:05.586Z,98250.00
2022-08-22T00:30:15.606Z,98250.00
2022-08-22T00:30:26.426Z,98250.00
2022-08-22T00:30:37.526Z,98254.00
2022-08-22T00:30:45.554Z,98252.00
2022-08-22T00:30:55.576Z,98252.00
2022-08-22T00:31:05.576Z,98250.00
2022-08-22T00:31:15.580Z,98254.00
2022-08-22T00:31:27.506Z,98250.00
2022-08-22T00:31:35.548Z,98250.00
2022-08-22T00:31:45.746Z,98252.00
2022-08-22T00:31:55.607Z,98252.00
2022-08-22T00:32:05.587Z,98250.00
2022-08-22T00:32:15.556Z,98252.00
2022-08-22T00:32:25.578Z,98250.00
2022-08-22T00:32:36.466Z,98252.00
2022-08-22T00:32:45.555Z,98252.00
2022-08-22T00:32:57.529Z,98250.00
2022-08-22T00:33:07.498Z,98250.00
2022-08-22T00:33:15.546Z,98248.00
2022-08-22T00:33:27.508Z,98248.00
2022-08-22T00:33:37.003Z,98250.00
2022-08-22T00:33:47.486Z,98252.00
2022-08-22T00:33:55.538Z,98252.00
2022-08-22T00:34:05.581Z,98252.00
2022-08-22T00:34:17.508Z,98252.00
2022-08-22T00:34:26.495Z,98250.00
2022-08-22T00:34:35.576Z,98248.00
2022-08-22T00:34:45.547Z,98250.00
2022-08-22T00:34:55.545Z,98250.00
2022-08-22T00:35:07.487Z,98248.00
2022-08-22T00:35:17.487Z,98248.00
2022-08-22T00:35:25.533Z,98252.00
2022-08-22T00:35:35.564Z,98248.00
2022-08-22T00:35:45.517Z,98250.00
2022-08-22T00:35:55.598Z,98248.00
2022-08-22T00:36:07.470Z,98250.00
2022-08-22T00:36:17.488Z,98248.00
2022-08-22T00:36:25.547Z,98250.00
2022-08-22T00:36:37.488Z,98248.00
2022-08-22T00:36:47.770Z,98252.00
2022-08-22T00:36:57.228Z,98252.00
2022-08-22T00:37:07.722Z,98250.00
2022-08-22T00:37:17.707Z,98252.00
2022-08-22T00:37:25.744Z,98252.00
2022-08-22T00:37:38.206Z,98250.00
2022-08-22T00:37:45.748Z,98250.00
2022-08-22T00:37:57.848Z,98248.00
2022-08-22T00:38:07.218Z,98248.00
2022-08-22T00:38:17.687Z,98250.00
2022-08-22T00:38:27.679Z,98252.00
2022-08-22T00:38:35.740Z,98250.00
2022-08-22T00:38:47.690Z,98248.00
2022-08-22T00:38:55.787Z,98250.00
2022-08-22T00:39:05.809Z,98254.00
2022-08-22T00:39:16.598Z,98254.00
2022-08-22T00:39:25.738Z,98252.00
2022-08-22T00:39:35.728Z,98254.00
2022-08-22T00:39:46.019Z,98252.00
2022-08-22T00:39:55.783Z,98252.00
2022-08-22T00:40:07.776Z,98254.00
2022-08-22T00:40:16.536Z,98250.00
2022-08-22T00:40:27.701Z,98248.00
2022-08-22T00:40:35.759Z,98250.00
2022-08-22T00:40:45.751Z,98252.00
2022-08-22T00:40:57.695Z,98252.00
2022-08-22T00:41:05.709Z,98250.00
2022-08-22T00:41:15.740Z,98252.00
2022-08-22T00:41:25.729Z,98252.00
2022-08-22T00:41:35.772Z,98250.00
2022-08-22T00:41:47.689Z,98252.00
2022-08-22T00:41:56.610Z,98252.00
2022-08-22T00:42:05.710Z,98252.00
2022-08-22T00:42:31.241Z,98250.00
2022-08-22T00:42:31.262Z,98254.00
2022-08-22T00:42:39.223Z,98254.00
2022-08-22T00:42:49.219Z,98252.00
2022-08-22T00:42:58.730Z,98254.00
2022-08-22T00:43:09.210Z,98254.00
2022-08-22T00:43:19.225Z,98252.00
2022-08-22T00:43:29.199Z,98252.00
2022-08-22T00:43:37.330Z,98252.00
2022-08-22T00:43:47.250Z,98254.00
2022-08-22T00:43:59.230Z,98252.00
2022-08-22T00:44:07.278Z,98256.00
2022-08-22T00:44:18.169Z,98254.00
2022-08-22T00:44:27.249Z,98256.00
2022-08-22T00:44:39.210Z,98260.00
2022-08-22T00:44:47.407Z,98258.00
2022-08-22T00:44:57.269Z,98256.00
2022-08-22T00:45:07.267Z,98254.00
2022-08-22T00:45:18.708Z,98256.00
2022-08-22T00:45:27.232Z,98258.00
2022-08-22T00:45:38.039Z,98254.00
2022-08-22T00:45:49.191Z,98256.00
2022-08-22T00:45:59.191Z,98258.00
2022-08-22T00:46:09.197Z,98258.00
2022-08-22T00:46:18.710Z,98258.00
2022-08-22T00:46:29.180Z,98260.00
2022-08-22T00:46:39.180Z,98258.00
2022-08-22T00:46:47.231Z,98260.00
2022-08-22T00:46:57.244Z,98258.00
2022-08-22T00:47:07.487Z,98260.00
2022-08-22T00:47:17.512Z,98258.00
2022-08-22T00:47:29.431Z,98260.00
2022-08-22T00:47:37.479Z,98258.00
2022-08-22T00:47:47.490Z,98256.00
2022-08-22T00:47:57.736Z,98260.00
2022-08-22T00:48:09.402Z,98260.00
2022-08-22T00:48:17.871Z,98260.00
2022-08-22T00:48:29.402Z,98260.00
2022-08-22T00:48:39.421Z,98260.00
2022-08-22T00:48:47.458Z,98260.00
2022-08-22T00:48:58.231Z,98260.00
2022-08-22T00:49:09.421Z,98262.00
2022-08-22T00:49:19.411Z,98260.00
2022-08-22T00:49:29.743Z,98260.00
2022-08-22T00:49:37.462Z,98262.00
2022-08-22T00:49:47.460Z,98260.00
2022-08-22T00:49:57.591Z,98262.00
2022-08-22T00:50:07.733Z,98258.00
2022-08-22T00:50:19.409Z,98262.00
2022-08-22T00:50:29.402Z,98260.00
2022-08-22T00:50:38.912Z,98260.00
2022-08-22T00:50:47.721Z,98260.00
2022-08-22T00:50:59.391Z,98260.00
2022-08-22T00:51:09.402Z,98262.00
2022-08-22T00:51:17.738Z,98256.00
2022-08-22T00:51:27.665Z,98260.00
2022-08-22T00:51:37.691Z,98256.00
2022-08-22T00:51:47.431Z,98260.00
2022-08-22T00:51:58.454Z,98258.00
2022-08-22T00:52:07.803Z,98262.00
2022-08-22T00:52:19.382Z,98260.00
2022-08-22T00:52:29.412Z,98260.00
2022-08-22T00:52:37.802Z,98260.00
2022-08-22T00:52:49.382Z,98258.00
2022-08-22T00:52:59.405Z,98260.00
2022-08-22T00:53:09.402Z,98260.00
2022-08-22T00:53:17.441Z,98260.00
2022-08-22T00:53:27.563Z,98260.00
2022-08-22T00:53:39.405Z,98258.00
2022-08-22T00:53:47.842Z,98258.00
2022-08-22T00:53:59.384Z,98260.00
2022-08-22T00:54:09.658Z,98260.00
2022-08-22T00:54:19.941Z,98260.00
2022-08-22T00:54:30.975Z,98260.00
2022-08-22T00:54:39.354Z,98258.00
2022-08-22T00:54:49.003Z,98260.00
2022-08-22T00:54:59.961Z,98260.00
2022-08-22T00:55:09.363Z,98256.00
2022-08-22T00:55:20.933Z,98258.00
2022-08-22T00:55:35.129Z,98254.00
2022-08-22T00:55:40.403Z,98256.00
2022-08-22T00:55:49.967Z,98256.00
2022-08-22T00:56:01.902Z,98254.00
2022-08-22T00:56:11.915Z,98258.00
2022-08-22T00:56:20.852Z,98254.00
2022-08-22T00:56:30.144Z,98256.00
2022-08-22T00:57:16.435Z,98254.00
2022-08-22T00:57:28.420Z,98256.00
2022-08-22T00:57:38.391Z,98254.00
2022-08-22T00:57:48.401Z,98260.00
2022-08-22T00:57:58.570Z,98256.00
2022-08-22T00:58:06.456Z,98254.00
2022-08-22T00:58:18.406Z,98256.00
2022-08-22T00:58:28.381Z,98256.00
2022-08-22T00:58:36.452Z,98256.00
2022-08-22T00:58:46.493Z,98256.00
2022-08-22T00:58:58.441Z,98254.00
2022-08-22T00:59:17.957Z,98256.00
2022-08-22T00:59:23.671Z,98256.00
2022-08-22T00:59:30.060Z,98258.00
2022-08-22T00:59:38.068Z,98256.00
2022-08-22T00:59:48.144Z,98258.00
2022-08-22T00:59:57.964Z,98258.00
2022-08-22T01:00:08.155Z,98258.00
2022-08-22T01:00:18.115Z,98256.00
2022-08-22T01:00:28.159Z,98256.00
2022-08-22T01:00:38.181Z,98258.00
2022-08-22T01:00:49.997Z,98254.00
2022-08-22T01:00:58.050Z,98256.00
2022-08-22T01:01:08.247Z,98258.00
2022-08-22T01:01:19.957Z,98256.00
2022-08-22T01:01:28.180Z,98260.00
2022-08-22T01:01:38.257Z,98258.00
2022-08-22T01:01:47.973Z,98256.00
2022-08-22T01:01:58.002Z,98258.00
2022-08-22T01:02:07.990Z,98258.00
2022-08-22T01:02:18.237Z,98258.00
2022-08-22T01:02:28.007Z,98258.00
2022-08-22T01:02:37.971Z,98258.00
2022-08-22T01:02:52.581Z,98258.00
2022-08-22T01:02:57.972Z,98256.00
2022-08-22T01:03:09.919Z,98256.00
2022-08-22T01:03:17.961Z,98262.00
2022-08-22T01:03:28.091Z,98256.00
2022-08-22T01:03:39.914Z,98260.00
2022-08-22T01:03:49.925Z,98254.00
2022-08-22T01:03:58.839Z,98254.00
2022-08-22T01:04:07.979Z,98256.00
2022-08-22T01:04:19.953Z,98254.00
2022-08-22T01:04:28.794Z,98258.00
2022-08-22T01:04:37.972Z,98260.00
2022-08-22T01:04:49.923Z,98256.00
2022-08-22T01:04:58.744Z,98256.00
2022-08-22T01:05:07.983Z,98258.00
2022-08-22T01:05:17.971Z,98258.00
2022-08-22T01:05:29.905Z,98258.00
2022-08-22T01:05:37.943Z,98262.00
2022-08-22T01:05:48.919Z,98260.00
2022-08-22T01:05:59.910Z,98258.00
2022-08-22T01:06:09.912Z,98256.00
2022-08-22T01:06:19.882Z,98256.00
2022-08-22T01:06:27.935Z,98256.00
2022-08-22T01:06:37.943Z,98258.00
2022-08-22T01:06:49.894Z,98258.00
2022-08-22T01:06:59.920Z,98260.00
2022-08-22T01:07:07.976Z,98258.00
2022-08-22T01:07:19.894Z,98258.00
2022-08-22T01:07:30.626Z,98258.00
2022-08-22T01:07:40.274Z,98260.00
2022-08-22T01:07:51.468Z,98260.00
2022-08-22T01:07:59.651Z,98260.00
2022-08-22T01:08:09.544Z,98260.00
2022-08-22T01:08:19.483Z,98262.00
2022-08-22T01:08:30.464Z,98260.00
2022-08-22T01:08:39.602Z,98260.00
2022-08-22T01:08:49.484Z,98260.00
2022-08-22T01:09:01.485Z,98262.00
2022-08-22T01:09:09.513Z,98262.00
2022-08-22T01:09:20.373Z,98262.00
2022-08-22T01:09:29.680Z,98262.00
2022-08-22T01:09:41.449Z,98260.00
2022-08-22T01:09:50.969Z,98262.00
2022-08-22T01:10:01.446Z,98262.00
2022-08-22T01:10:11.434Z,98262.00
2022-08-22T01:10:20.981Z,98262.00
2022-08-22T01:10:29.486Z,98264.00
2022-08-22T01:10:41.470Z,98264.00
2022-08-22T01:10:51.488Z,98262.00
2022-08-22T01:11:00.934Z,98264.00
2022-08-22T01:11:11.418Z,98260.00
2022-08-22T01:11:19.475Z,98262.00
2022-08-22T01:11:29.505Z,98264.00
2022-08-22T01:11:41.427Z,98264.00
2022-08-22T01:11:51.434Z,98260.00
2022-08-22T01:11:59.485Z,98264.00
2022-08-22T01:12:09.544Z,98262.00
2022-08-22T01:12:21.396Z,98264.00
2022-08-22T01:12:30.324Z,98264.00
2022-08-22T01:12:41.436Z,98262.00
2022-08-22T01:12:49.455Z,98262.00
2022-08-22T01:12:59.475Z,98264.00
2022-08-22T01:13:09.475Z,98260.00
2022-08-22T01:13:19.474Z,98262.00
2022-08-22T01:13:30.234Z,98258.00
2022-08-22T01:13:39.450Z,98258.00
2022-08-22T01:13:51.636Z,98260.00
2022-08-22T01:13:59.666Z,98260.00
2022-08-22T01:14:09.535Z,98262.00
2022-08-22T01:14:19.474Z,98262.00
2022-08-22T01:14:34.545Z,98262.00
2022-08-22T01:14:41.295Z,98260.00
2022-08-22T01:14:51.795Z,98260.00
2022-08-22T01:15:00.595Z,98262.00
2022-08-22T01:15:11.814Z,98258.00
2022-08-22T01:15:21.776Z,98260.00
2022-08-22T01:15:29.816Z,98262.00
2022-08-22T01:15:41.801Z,98260.00
2022-08-22T01:15:49.856Z,98266.00
2022-08-22T01:15:59.814Z,98264.00
2022-08-22T01:16:11.315Z,98258.00
2022-08-22T01:16:21.796Z,98264.00
2022-08-22T01:16:29.837Z,98264.00
2022-08-22T01:16:39.886Z,98262.00
2022-08-22T01:16:51.778Z,98262.00
2022-08-22T01:17:00.407Z,98260.00
2022-08-22T01:17:11.788Z,98262.00
2022-08-22T01:17:21.775Z,98264.00
2022-08-22T01:17:29.829Z,98264.00
2022-08-22T01:17:41.759Z,98262.00
2022-08-22T01:17:51.776Z,98262.00
2022-08-22T01:18:00.825Z,98262.00
2022-08-22T01:18:09.826Z,98266.00
2022-08-22T01:18:21.765Z,98264.00
2022-08-22T01:18:30.777Z,98266.00
2022-08-22T01:18:41.776Z,98264.00
2022-08-22T01:18:49.813Z,98262.00
2022-08-22T01:19:00.725Z,98262.00
2022-08-22T01:19:11.765Z,98262.00
2022-08-22T01:19:21.746Z,98264.00
2022-08-22T01:19:29.804Z,98262.00
2022-08-22T01:19:41.777Z,98260.00
2022-08-22T01:19:51.759Z,98264.00
2022-08-22T01:20:01.749Z,98264.00
2022-08-22T01:20:09.787Z,98262.00
2022-08-22T01:20:21.767Z,98264.00
2022-08-22T01:20:31.754Z,98266.00
2022-08-22T01:20:39.786Z,98264.00
2022-08-22T01:20:50.548Z,98264.00
2022-08-22T01:20:59.807Z,98260.00
2022-08-22T01:21:09.838Z,98264.00
2022-08-22T01:21:24.145Z,98264.00
2022-08-22T01:21:29.907Z,98262.00
2022-08-22T01:21:40.812Z,98262.00
2022-08-22T01:21:49.792Z,98262.00
2022-08-22T01:22:01.751Z,98266.00
2022-08-22T01:22:10.676Z,98262.00
2022-08-22T01:22:21.737Z,98264.00
2022-08-22T01:22:30.288Z,98266.00
2022-08-22T01:22:39.836Z,98264.00
2022-08-22T01:22:50.618Z,98264.00
2022-08-22T01:23:01.737Z,98266.00
2022-08-22T01:23:11.727Z,98262.00
2022-08-22T01:23:19.797Z,98264.00
2022-08-22T01:23:30.548Z,98264.00
2022-08-22T01:23:41.719Z,98260.00
2022-08-22T01:23:51.727Z,98264.00
2022-08-22T01:24:01.726Z,98264.00
2022-08-22T01:24:10.740Z,98262.00
2022-08-22T01:24:20.319Z,98264.00
2022-08-22T01:24:30.259Z,98262.00
2022-08-22T01:24:40.290Z,98264.00
2022-08-22T01:24:49.778Z,98264.00
2022-08-22T01:24:59.877Z,98262.00
2022-08-22T01:25:11.708Z,98264.00
2022-08-22T01:25:25.801Z,98262.00
2022-08-22T01:25:31.640Z,98262.00
2022-08-22T01:25:42.946Z,98264.00
2022-08-22T01:25:51.043Z,98262.00
2022-08-22T01:26:02.949Z,98262.00
2022-08-22T01:26:10.998Z,98262.00
2022-08-22T01:26:22.939Z,98266.00
2022-08-22T01:26:32.918Z,98262.00
2022-08-22T01:26:41.100Z,98260.00
2022-08-22T01:26:52.958Z,98264.00
2022-08-22T01:27:01.748Z,98260.00
2022-08-22T01:27:11.369Z,98266.00
2022-08-22T01:27:22.909Z,98264.00
2022-08-22T01:27:31.189Z,98266.00
2022-08-22T01:27:40.973Z,98264.00
2022-08-22T01:27:50.986Z,98264.00
2022-08-22T01:28:02.976Z,98264.00
2022-08-22T01:28:12.909Z,98264.00
2022-08-22T01:28:20.950Z,98264.00
2022-08-22T01:28:32.934Z,98264.00
2022-08-22T01:28:41.000Z,98262.00
2022-08-22T01:28:52.920Z,98264.00
2022-08-22T01:29:02.929Z,98264.00
2022-08-22T01:29:12.439Z,98264.00
2022-08-22T01:29:28.266Z,98266.00
2022-08-22T01:29:32.599Z,98262.00
2022-08-22T01:29:43.041Z,98266.00
2022-08-22T01:29:53.028Z,98262.00
2022-08-22T01:30:03.040Z,98262.00
2022-08-22T01:30:12.097Z,98264.00
2022-08-22T01:30:23.050Z,98264.00
2022-08-22T01:30:33.341Z,98264.00
2022-08-22T01:30:43.260Z,98264.00
2022-08-22T01:30:51.309Z,98262.00
2022-08-22T01:31:03.285Z,98262.00
2022-08-22T01:31:13.247Z,98262.00
2022-08-22T01:31:21.315Z,98260.00
2022-08-22T01:31:31.271Z,98260.00
2022-08-22T01:31:41.290Z,98258.00
2022-08-22T01:31:53.240Z,98264.00
2022-08-22T01:32:01.291Z,98260.00
2022-08-22T01:32:11.301Z,98260.00
2022-08-22T01:32:21.818Z,98260.00
2022-08-22T01:32:33.231Z,98262.00
2022-08-22T01:32:41.420Z,98262.00
2022-08-22T01:32:56.790Z,98260.00
2022-08-22T01:33:03.779Z,98260.00
2022-08-22T01:33:13.741Z,98262.00
2022-08-22T01:33:22.797Z,98260.00
2022-08-22T01:33:31.800Z,98260.00
2022-08-22T01:33:43.761Z,98260.00
2022-08-22T01:33:53.304Z,98262.00
2022-08-22T01:34:01.790Z,98260.00
2022-08-22T01:34:12.880Z,98264.00
2022-08-22T01:34:23.761Z,98262.00
2022-08-22T01:34:31.797Z,98260.00
2022-08-22T01:34:43.752Z,98262.00
2022-08-22T01:34:53.731Z,98258.00
2022-08-22T01:35:01.791Z,98260.00
2022-08-22T01:35:11.812Z,98258.00
2022-08-22T01:35:21.840Z,98258.00
2022-08-22T01:35:31.811Z,98258.00
2022-08-22T01:35:43.721Z,98258.00
2022-08-22T01:35:53.239Z,98258.00
2022-08-22T01:36:03.741Z,98260.00
2022-08-22T01:36:13.776Z,98258.00
2022-08-22T01:36:23.232Z,98260.00
2022-08-22T01:36:33.732Z,98258.00
2022-08-22T01:36:43.720Z,98260.00
2022-08-22T01:36:53.258Z,98258.00
2022-08-22T01:37:03.748Z,98260.00
2022-08-22T01:37:13.718Z,98258.00
2022-08-22T01:37:23.243Z,98258.00
2022-08-22T01:37:33.732Z,98256.00
2022-08-22T01:37:43.827Z,98254.00
2022-08-22T01:37:54.594Z,98256.00
2022-08-22T01:38:04.572Z,98258.00
2022-08-22T01:38:12.941Z,98256.00
2022-08-22T01:38:23.481Z,98256.00
2022-08-22T01:38:32.702Z,98256.00
2022-08-22T01:38:42.974Z,98256.00
2022-08-22T01:38:53.009Z,98254.00
2022-08-22T01:39:04.541Z,98256.00
2022-08-22T01:39:13.054Z,98254.00
2022-08-22T01:39:24.549Z,98256.00
2022-08-22T01:39:33.012Z,98254.00
2022-08-22T01:39:43.178Z,98252.00
2022-08-22T01:39:54.071Z,98254.00
2022-08-22T01:40:02.646Z,98252.00
2022-08-22T01:40:13.103Z,98254.00
2022-08-22T01:40:23.179Z,98254.00
2022-08-22T01:40:32.620Z,98254.00
2022-08-22T01:40:54.055Z,98252.00
2022-08-22T01:40:54.525Z,98254.00
2022-08-22T01:41:04.552Z,98254.00
2022-08-22T01:41:13.091Z,98252.00
2022-08-22T01:41:23.128Z,98252.00
2022-08-22T01:41:33.943Z,98250.00
2022-08-22T01:41:43.112Z,98252.00
2022-08-22T01:41:55.069Z,98250.00
2022-08-22T01:42:05.082Z,98252.00
2022-08-22T01:42:13.101Z,98250.00
2022-08-22T01:42:25.061Z,98252.00
2022-08-22T01:42:33.114Z,98250.00
2022-08-22T01:42:43.111Z,98250.00
2022-08-22T01:42:55.072Z,98248.00
2022-08-22T01:43:05.034Z,98250.00
2022-08-22T01:43:14.523Z,98250.00
2022-08-22T01:43:58.812Z,98252.00
2022-08-22T01:43:59.299Z,98250.00
2022-08-22T01:43:59.655Z,98248.00
2022-08-22T01:44:00.535Z,98250.00
2022-08-22T01:44:05.766Z,98250.00
2022-08-22T01:44:17.754Z,98252.00
2022-08-22T01:44:26.459Z,98250.00
2022-08-22T01:44:37.723Z,98248.00
2022-08-22T01:44:47.720Z,98250.00
2022-08-22T01:44:57.714Z,98248.00
2022-08-22T01:45:07.724Z,98250.00
2022-08-22T01:45:17.703Z,98250.00
2022-08-22T01:45:27.721Z,98250.00
2022-08-22T01:45:37.714Z,98250.00
2022-08-22T01:45:46.616Z,98250.00
2022-08-22T01:45:55.804Z,98248.00
2022-08-22T01:46:05.764Z,98252.00
2022-08-22T01:46:21.202Z,98248.00
2022-08-22T01:46:26.341Z,98252.00
2022-08-22T01:46:36.376Z,98250.00
2022-08-22T01:46:46.363Z,98248.00
2022-08-22T01:46:56.479Z,98254.00
2022-08-22T01:47:06.336Z,98252.00
2022-08-22T01:47:18.305Z,98256.00
2022-08-22T01:47:27.804Z,98252.00
2022-08-22T01:47:37.549Z,98254.00
2022-08-22T01:47:48.326Z,98250.00
2022-08-22T01:47:56.374Z,98246.00
2022-08-22T01:48:06.324Z,98252.00
2022-08-22T01:48:17.146Z,98252.00
2022-08-22T01:48:26.354Z,98252.00
2022-08-22T01:48:38.286Z,98250.00
2022-08-22T01:48:46.347Z,98250.00
2022-08-22T01:48:58.307Z,98252.00
2022-08-22T01:49:07.323Z,98252.00
2022-08-22T01:49:16.345Z,98250.00
2022-08-22T01:49:28.305Z,98252.00
2022-08-22T01:49:38.275Z,98250.00
2022-08-22T01:49:46.505Z,98252.00
2022-08-22T01:49:56.326Z,98252.00
2022-08-22T01:50:08.285Z,98250.00
2022-08-22T01:50:16.335Z,98250.00
2022-08-22T01:50:28.287Z,98250.00
2022-08-22T01:50:36.329Z,98252.00
2022-08-22T01:50:46.336Z,98250.00
2022-08-22T01:50:58.318Z,98252.00
2022-08-22T01:51:06.315Z,98250.00
2022-08-22T01:51:18.282Z,98252.00
2022-08-22T01:51:26.313Z,98246.00
2022-08-22T01:51:36.565Z,98250.00
2022-08-22T01:51:48.255Z,98250.00
2022-08-22T01:51:56.434Z,98246.00
2022-08-22T01:52:08.266Z,98248.00
2022-08-22T01:52:18.254Z,98246.00
2022-08-22T01:52:26.316Z,98248.00
2022-08-22T01:52:36.337Z,98250.00